Airfield :
LOGIN :

Register | Disclaimer

   EN    FR    IT 

 










Legend :    VFR   Marginal VFR   IFR   Intensive IFR   Very Intensive IFR
Visi :
Ceiling :
>= 8 km
>= 3000ft
5 to 8 km
1000 to 3000 ft
1500m to 5 km
500 to 1000 ft
800 to 1500m
200 to 500 ft
< 800m
< 200 ft
Symbols :   Thunderstorms  Fog  Heavy snow  Heavy precipitations  Wind > 20 kt
SIGMETs :     Misc.  Thunderstorms  Icing  Turbulence  Mountain Waves  Volcanic Ashes






- Airport Elevation : 1568 ft


ETSB - Büchel AB

CURRENT METAR :
  • 070720Z 27008KT 9999 -DZ SCT010 BKN017 15/13 Q1021 WHT WHT TEMPO YLO

EXPIRED METARs :
  • 070620Z 26008KT 9999 SCT012 BKN045 15/12 Q1021 BLU BLU BECMG WHT
  • 070520Z 28009KT 9999 FEW020 BKN040 14/11 Q1021 BLU BLU
  • 070501Z 28008KT 9999 BKN045 14/11 Q1021 BLU BLU
  • 070420Z AUTO 28006KT 9999 // ////// 14/11 Q1021 ///

TAF TAF ETSB
Valid from the 07 at 08:00 until the 07 at 17:00 UTC


070722Z 0708/0717 27012KT 9999 NSW SCT010 BKN015
TEMPO 0708/0712 32012G22KT 3000 -SHRA BKN006 BY ETGL



MET'MAP, your aeronautical weather chart ! - Copyright ORBIFLY December 2007 - Disclaimer

ORBIFLY MET'MAP TEAM :

Programming & Development : Alexandra Zaïnal
Original concept : Baudouin d'Aumeries
Technical & hardware support : Manuel Goepfert
Assistance : Marc-Olivier Méhu




SOURCES & CREDITS :

   NOAA